Time;durP1;ratioP1;P1;durP2;ratioP2;P2;SDS_P1;SDS_P2;PMS_P1;PMS_P2;Temp;Humidity;BMP_temperature;BMP_pressure;BME280_temperature;BME280_humidity;BME280_pressure;Samples;Min_cycle;Max_cycle;Signal;HPM_P1;HPM_P2
2022/12/03 00:00:56;;;;;;;80.63;26.70;;;;;;;0.67;100.00;96340.75;5048018;28;20077;-78
2022/12/03 00:03:22;;;;;;;70.35;24.02;;;;;;;0.67;100.00;96340.75;5043699;28;20045;-79
2022/12/03 00:05:50;;;;;;;83.13;26.63;;;;;;;0.72;100.00;96335.44;5031235;28;20037;-78
2022/12/03 00:08:17;;;;;;;76.28;25.27;;;;;;;0.76;100.00;96341.91;5039762;28;20049;-78
2022/12/03 00:10:43;;;;;;;83.13;25.98;;;;;;;0.78;100.00;96342.50;5047708;28;20053;-79
2022/12/03 00:13:10;;;;;;;76.65;25.98;;;;;;;0.76;100.00;96341.91;5041363;28;20484;-79
2022/12/03 00:15:37;;;;;;;81.65;27.17;;;;;;;0.74;100.00;96336.03;5042198;28;20050;-79
2022/12/03 00:18:05;;;;;;;75.28;26.98;;;;;;;0.74;100.00;96346.75;5041895;28;20041;-80
2022/12/03 00:20:31;;;;;;;74.82;25.73;;;;;;;0.69;100.00;96344.00;5047564;28;20052;-79
2022/12/03 00:22:59;;;;;;;73.93;24.80;;;;;;;0.71;100.00;96333.03;5046539;28;20057;-79
2022/12/03 00:25:26;;;;;;;73.15;24.33;;;;;;;0.69;100.00;96333.28;5031368;28;20033;-80
2022/12/03 00:27:52;;;;;;;78.13;25.52;;;;;;;0.68;100.00;96331.69;5040896;28;20041;-79
2022/12/03 00:30:19;;;;;;;79.00;24.70;;;;;;;0.68;100.00;96325.50;5043117;28;20045;-81
2022/12/03 00:32:45;;;;;;;79.65;23.88;;;;;;;0.68;100.00;96337.03;5041044;28;20386;-79
2022/12/03 00:35:12;;;;;;;76.72;23.15;;;;;;;0.51;100.00;96331.78;5044917;28;20053;-79
2022/12/03 00:37:38;;;;;;;68.63;22.35;;;;;;;0.54;100.00;96330.47;5038915;28;20053;-79
2022/12/03 00:40:08;;;;;;;64.82;21.17;;;;;;;0.47;100.00;96329.88;5044233;28;20037;-80
2022/12/03 00:42:34;;;;;;;65.53;20.58;;;;;;;0.49;100.00;96328.56;5038191;28;20046;-79
2022/12/03 00:45:01;;;;;;;69.47;21.75;;;;;;;0.48;100.00;96329.63;5046045;28;20042;-79
2022/12/03 00:47:28;;;;;;;60.97;20.63;;;;;;;0.46;100.00;96328.25;5038569;28;20041;-80
2022/12/03 00:49:54;;;;;;;61.35;20.33;;;;;;;0.46;100.00;96320.22;5038526;28;20045;-79
2022/12/03 00:52:22;;;;;;;73.22;20.38;;;;;;;0.44;100.00;96325.03;5038796;28;20048;-80
2022/12/03 00:54:48;;;;;;;65.05;20.67;;;;;;;0.46;100.00;96328.25;5038485;28;20060;-79
2022/12/03 00:57:16;;;;;;;68.50;21.10;;;;;;;0.41;100.00;96326.34;5037048;28;20140;-79
2022/12/03 00:59:43;;;;;;;75.05;20.33;;;;;;;0.40;100.00;96334.63;5040826;28;20099;-79
2022/12/03 01:02:10;;;;;;;60.72;20.15;;;;;;;0.37;100.00;96325.25;5040021;28;20056;-79
2022/12/03 01:04:37;;;;;;;67.05;19.85;;;;;;;0.40;100.00;96334.63;5040298;28;20140;-79
2022/12/03 01:07:04;;;;;;;71.38;21.08;;;;;;;0.37;100.00;96340.50;5034992;28;20047;-78
2022/12/03 01:09:31;;;;;;;60.63;20.13;;;;;;;0.28;100.00;96340.16;5041747;28;20047;-79
2022/12/03 01:11:57;;;;;;;61.47;19.02;;;;;;;0.27;100.00;96340.41;5045733;28;20041;-79
2022/12/03 01:14:25;;;;;;;68.32;21.13;;;;;;;0.22;100.00;96341.97;5046441;28;20504;-79
2022/12/03 01:16:52;;;;;;;54.88;18.50;;;;;;;0.17;100.00;96344.59;5042664;28;20041;-79
2022/12/03 01:19:19;;;;;;;70.80;20.48;;;;;;;-0.06;100.00;96347.53;5042055;28;20048;-79
2022/12/03 01:21:47;;;;;;;117.00;22.80;;;;;;;-0.14;100.00;96346.13;5046414;28;20048;-80
2022/12/03 01:24:15;;;;;;;63.85;19.20;;;;;;;-0.06;100.00;96342.19;5038807;28;20037;-79
2022/12/03 01:26:42;;;;;;;59.25;20.05;;;;;;;-0.02;100.00;96335.28;5044332;28;20057;-80
2022/12/03 01:29:08;;;;;;;65.70;21.92;;;;;;;0.06;100.00;96329.50;5048013;28;20053;-78
2022/12/03 01:34:20;;;;;;;64.15;21.10;;;;;;;0.06;100.00;96344.75;5045981;28;20463;-80
2022/12/03 01:36:47;;;;;;;68.82;21.80;;;;;;;0.09;100.00;96328.97;5036882;28;20485;-77
2022/12/03 01:39:13;;;;;;;59.55;20.00;;;;;;;0.10;100.00;96325.22;5045998;28;20041;-80
2022/12/03 01:41:40;;;;;;;76.13;22.95;;;;;;;0.12;100.00;96328.47;5051698;28;20044;-79
2022/12/03 01:44:16;;;;;;;60.60;21.10;;;;;;;0.16;100.00;96323.44;5034686;28;20037;-78
2022/12/03 01:46:45;;;;;;;65.50;21.48;;;;;;;0.15;100.00;96330.63;5044432;28;20056;-78
2022/12/03 01:49:16;;;;;;;57.85;20.63;;;;;;;0.07;100.00;96325.75;5045916;28;20400;-79
2022/12/03 01:51:43;;;;;;;71.35;21.73;;;;;;;0.08;100.00;96327.34;5041262;28;20041;-79
2022/12/03 01:54:16;;;;;;;55.45;20.38;;;;;;;0.11;100.00;96332.22;5042483;28;20056;-79
2022/12/03 01:56:42;;;;;;;64.05;20.73;;;;;;;0.06;100.00;96339.41;5043739;28;20072;-79
2022/12/03 01:59:13;;;;;;;61.42;21.92;;;;;;;0.07;100.00;96333.78;5046248;28;20042;-77
2022/12/03 02:01:39;;;;;;;64.00;20.38;;;;;;;0.06;100.00;96326.81;5041740;28;20186;-79
2022/12/03 02:04:11;;;;;;;70.63;20.58;;;;;;;0.05;100.00;96327.03;5047205;28;20056;-78
2022/12/03 02:06:38;;;;;;;70.67;22.83;;;;;;;0.08;100.00;96327.34;5037722;28;20049;-79
2022/12/03 02:09:07;;;;;;;61.80;22.13;;;;;;;0.03;100.00;96329.97;5045836;28;20132;-78
2022/12/03 02:11:37;;;;;;;66.80;22.35;;;;;;;0.07;100.00;96327.63;5044314;28;20073;-79
2022/12/03 02:14:07;;;;;;;58.70;21.08;;;;;;;0.10;100.00;96330.56;5047452;28;20067;-78
2022/12/03 02:16:35;;;;;;;66.50;22.27;;;;;;;0.15;100.00;96337.84;5046062;28;20071;-78
2022/12/03 02:19:02;;;;;;;63.22;21.70;;;;;;;0.12;100.00;96344.53;5041591;28;20045;-78
2022/12/03 02:21:37;;;;;;;59.70;20.92;;;;;;;0.11;100.00;96340.25;5042431;28;20128;-78
2022/12/03 02:24:12;;;;;;;59.83;20.38;;;;;;;0.14;100.00;96342.41;5045270;28;20048;-79
2022/12/03 02:26:40;;;;;;;61.00;21.35;;;;;;;0.17;100.00;96341.13;5052645;28;20047;-78
2022/12/03 02:29:06;;;;;;;60.28;20.92;;;;;;;0.13;100.00;96345.34;5045738;28;20052;-77
2022/12/03 02:31:33;;;;;;;64.85;21.13;;;;;;;0.07;100.00;96338.31;5048369;28;20048;-78
2022/12/03 02:33:59;;;;;;;53.55;19.98;;;;;;;0.09;100.00;96347.72;5041162;28;20045;-78
2022/12/03 02:36:26;;;;;;;58.97;20.45;;;;;;;0.09;100.00;96334.31;5040560;28;20132;-78
2022/12/03 02:38:53;;;;;;;57.75;20.27;;;;;;;0.06;100.00;96340.19;5036493;28;20068;-78
2022/12/03 02:44:09;;;;;;;50.13;18.27;;;;;;;-0.03;100.00;96344.38;5004486;28;20049;-78
2022/12/03 02:46:37;;;;;;;60.33;20.15;;;;;;;-0.05;100.00;96338.47;5044204;28;20480;-77
2022/12/03 02:49:07;;;;;;;58.17;19.48;;;;;;;-0.03;100.00;96341.69;5043985;28;20053;-78
2022/12/03 02:51:34;;;;;;;62.30;19.35;;;;;;;-0.04;100.00;96340.91;5051250;28;20056;-78
2022/12/03 02:54:02;;;;;;;59.95;19.58;;;;;;;-0.05;100.00;96343.81;5045745;28;20045;-78
2022/12/03 02:56:31;;;;;;;63.97;20.95;;;;;;;-0.09;100.00;96342.72;5037669;28;20053;-79
2022/12/03 02:59:01;;;;;;;59.38;20.45;;;;;;;-0.02;100.00;96332.59;5047858;28;20045;-77
2022/12/03 03:01:29;;;;;;;57.70;19.10;;;;;;;-0.01;100.00;96339.56;5048091;28;20063;-79
2022/12/03 03:03:56;;;;;;;57.00;19.13;;;;;;;0.00;100.00;96338.53;5048019;28;20050;-78
2022/12/03 03:06:23;;;;;;;55.38;19.55;;;;;;;-0.01;100.00;96340.38;5041308;28;20057;-80
2022/12/03 03:08:50;;;;;;;62.13;20.35;;;;;;;-0.04;100.00;96335.53;5044485;28;20045;-78
2022/12/03 03:11:16;;;;;;;57.55;20.27;;;;;;;-0.04;100.00;96340.09;5052501;28;20053;-78
2022/12/03 03:13:43;;;;;;;71.15;21.67;;;;;;;0.02;100.00;96349.78;5048201;28;20088;-78
2022/12/03 03:16:10;;;;;;;60.13;21.80;;;;;;;-0.02;100.00;96338.75;5037891;28;20053;-77
2022/12/03 03:18:38;;;;;;;65.32;20.92;;;;;;;0.04;100.00;96341.50;5044361;28;20493;-78
2022/12/03 03:21:05;;;;;;;55.63;20.35;;;;;;;0.10;100.00;96333.25;5041640;28;20033;-78
2022/12/03 03:23:31;;;;;;;60.83;21.33;;;;;;;0.06;100.00;96329.50;5050736;28;20547;-78
2022/12/03 03:26:00;;;;;;;60.33;20.33;;;;;;;0.16;100.00;96345.66;5048489;28;20045;-78
2022/12/03 03:28:29;;;;;;;59.20;19.80;;;;;;;0.21;100.00;96340.34;5052059;28;20037;-79
2022/12/03 03:30:57;;;;;;;65.63;21.55;;;;;;;0.17;100.00;96344.59;5043843;28;20049;-78
2022/12/03 03:33:24;;;;;;;50.92;18.58;;;;;;;0.18;100.00;96337.38;5049481;28;20046;-78
2022/12/03 03:35:52;;;;;;;59.03;20.55;;;;;;;0.15;100.00;96333.31;5045751;28;20091;-78
2022/12/03 03:38:20;;;;;;;66.82;20.90;;;;;;;0.14;100.00;96330.91;5043586;28;20033;-78
2022/12/03 03:40:49;;;;;;;57.60;19.23;;;;;;;0.17;100.00;96333.88;5042101;28;20056;-78
2022/12/03 03:43:15;;;;;;;56.28;19.27;;;;;;;0.19;100.00;96325.59;5043751;28;20479;-78
2022/12/03 03:45:43;;;;;;;64.18;20.92;;;;;;;0.21;100.00;96318.94;5044757;28;20049;-78
2022/12/03 03:48:13;;;;;;;61.90;19.90;;;;;;;0.24;100.00;96315.72;5039355;28;20132;-78
2022/12/03 03:50:42;;;;;;;57.65;20.02;;;;;;;0.25;100.00;96317.34;5054609;28;20139;-78
2022/12/03 03:53:12;;;;;;;64.95;21.27;;;;;;;0.23;100.00;96319.47;5043240;28;20049;-78
2022/12/03 03:55:40;;;;;;;57.00;19.63;;;;;;;0.18;100.00;96321.31;5035726;28;20053;-78
2022/12/03 03:58:09;;;;;;;61.40;19.63;;;;;;;0.15;100.00;96309.22;5039647;28;20047;-77
2022/12/03 04:00:37;;;;;;;70.88;20.77;;;;;;;0.19;100.00;96307.66;5049232;28;20055;-78
2022/12/03 04:03:04;;;;;;;51.78;18.67;;;;;;;0.18;100.00;96310.59;5047021;28;20103;-78
2022/12/03 04:05:32;;;;;;;55.38;19.50;;;;;;;0.18;100.00;96315.94;5045508;28;20103;-77
2022/12/03 04:07:58;;;;;;;56.47;18.65;;;;;;;0.18;100.00;96306.03;5040867;28;20061;-77
2022/12/03 04:13:11;;;;;;;63.65;20.58;;;;;;;0.22;100.00;96306.34;5053811;28;20052;-78
2022/12/03 04:15:38;;;;;;;60.03;20.50;;;;;;;0.22;100.00;96301.00;5045229;28;20045;-76
2022/12/03 04:22:38;;;;;;;59.22;19.70;;;;;;;0.32;100.00;96305.66;5036897;28;20103;-78
2022/12/03 04:23:36;;;;;;;55.00;18.33;;;;;;;0.20;100.00;96311.13;5044001;28;20072;-78
2022/12/03 04:28:49;;;;;;;55.83;18.35;;;;;;;0.23;100.00;96302.59;5042239;28;20048;-77
2022/12/03 04:36:44;;;;;;;59.40;18.98;;;;;;;0.32;100.00;96300.28;5052478;28;20114;-78
2022/12/03 04:39:15;;;;;;;58.15;19.80;;;;;;;0.31;100.00;96301.31;5051110;28;20055;-80
2022/12/03 04:41:44;;;;;;;64.68;20.55;;;;;;;0.41;100.00;96309.44;5045994;28;20049;-78
2022/12/03 04:46:55;;;;;;;62.88;20.08;;;;;;;0.40;100.00;96302.50;5043741;28;20077;-76
2022/12/03 04:49:25;;;;;;;59.88;20.25;;;;;;;0.45;100.00;96302.53;5042798;28;20041;-78
2022/12/03 04:51:52;;;;;;;69.88;24.10;;;;;;;0.40;100.00;96303.28;5043685;28;20048;-77
2022/12/03 04:54:19;;;;;;;72.65;23.38;;;;;;;0.43;100.00;96307.34;5038706;28;20408;-78
2022/12/03 04:56:47;;;;;;;72.90;22.98;;;;;;;0.44;100.00;96314.31;5041225;28;20049;-80
2022/12/03 04:59:14;;;;;;;66.10;22.48;;;;;;;0.43;100.00;96312.72;5043614;28;20041;-78
2022/12/03 05:01:41;;;;;;;76.10;23.08;;;;;;;0.44;100.00;96319.69;5049535;28;20061;-78
2022/12/03 05:04:08;;;;;;;69.57;23.00;;;;;;;0.43;100.00;96318.88;5038045;28;20440;-77
2022/12/03 05:06:36;;;;;;;71.22;22.88;;;;;;;0.44;100.00;96320.47;5039157;28;20547;-79
2022/12/03 05:09:03;;;;;;;65.95;22.23;;;;;;;0.48;100.00;96326.16;5044687;28;20049;-78
2022/12/03 05:11:30;;;;;;;66.18;22.65;;;;;;;0.50;100.00;96319.47;5043161;28;20040;-78
2022/12/03 05:13:58;;;;;;;75.97;24.05;;;;;;;0.56;100.00;96319.50;5039615;28;20517;-79
2022/12/03 05:16:25;;;;;;;77.45;23.63;;;;;;;0.52;100.00;96328.06;5032410;28;20051;-81
2022/12/03 05:18:52;;;;;;;63.75;22.55;;;;;;;0.51;100.00;96336.34;5031989;28;20046;-78
2022/12/03 05:21:18;;;;;;;71.75;24.23;;;;;;;0.50;100.00;96329.38;5032702;28;20073;-78
2022/12/03 05:23:46;;;;;;;71.22;23.38;;;;;;;0.51;100.00;96328.31;5049358;28;20132;-77
2022/12/03 05:26:16;;;;;;;70.40;22.35;;;;;;;0.51;100.00;96331.78;5051923;28;20069;-78
2022/12/03 05:28:44;;;;;;;68.00;22.27;;;;;;;0.54;100.00;96327.81;5041389;28;20049;-78
2022/12/03 05:31:13;;;;;;;79.20;23.15;;;;;;;0.55;100.00;96321.38;5038283;28;20451;-78
2022/12/03 05:33:41;;;;;;;69.43;22.65;;;;;;;0.62;100.00;96318.47;5041799;28;20045;-78
2022/12/03 05:36:08;;;;;;;73.95;24.65;;;;;;;0.60;100.00;96318.75;5052917;28;20067;-78
2022/12/03 05:38:35;;;;;;;70.13;22.42;;;;;;;0.63;100.00;96320.94;5038093;28;20081;-78
2022/12/03 05:42:52;;;;;;;73.40;23.33;;;;;;;0.65;100.00;96326.03;5053078;28;20041;-78
2022/12/03 05:43:48;;;;;;;78.07;24.27;;;;;;;0.63;100.00;96328.97;5035703;28;20045;-78
2022/12/03 05:46:18;;;;;;;76.43;24.08;;;;;;;0.63;100.00;96333.50;5052310;28;20052;-79
2022/12/03 05:48:45;;;;;;;77.00;23.13;;;;;;;0.58;100.00;96339.63;5043551;28;20132;-78
2022/12/03 05:51:12;;;;;;;69.75;23.17;;;;;;;0.57;100.00;96335.31;5044129;28;20132;-78
2022/12/03 05:53:41;;;;;;;75.35;24.45;;;;;;;0.55;100.00;96350.84;5044560;28;20099;-78
2022/12/03 05:56:14;;;;;;;76.90;22.70;;;;;;;0.53;100.00;96342.28;5043235;28;20068;-78
2022/12/03 05:58:41;;;;;;;73.07;23.33;;;;;;;0.56;100.00;96339.06;5046561;28;20091;-79
2022/12/03 06:01:08;;;;;;;66.55;21.55;;;;;;;0.58;100.00;96334.28;5050105;28;20041;-79
2022/12/03 06:03:37;;;;;;;81.72;24.88;;;;;;;0.57;100.00;96335.31;5034734;28;20121;-78
2022/12/03 06:06:08;;;;;;;65.07;21.52;;;;;;;0.61;100.00;96325.72;5046816;28;20042;-79
2022/12/03 06:08:35;;;;;;;69.03;23.25;;;;;;;0.64;100.00;96322.53;5047847;28;20099;-79
2022/12/03 06:11:02;;;;;;;72.93;24.02;;;;;;;0.59;100.00;96322.50;5040604;28;20046;-79
2022/12/03 06:13:32;;;;;;;75.53;22.45;;;;;;;0.51;100.00;96328.31;5038102;28;20049;-78
2022/12/03 06:16:01;;;;;;;63.63;20.50;;;;;;;0.54;100.00;96338.53;5053095;28;20048;-77
2022/12/03 06:18:27;;;;;;;54.88;18.27;;;;;;;0.53;100.00;96339.59;5051474;28;20555;-78
2022/12/03 06:20:57;;;;;;;66.25;22.08;;;;;;;0.52;100.00;96337.94;5044204;28;20041;-79
2022/12/03 06:23:28;;;;;;;62.65;20.70;;;;;;;0.55;100.00;96323.25;5044023;28;20042;-78
2022/12/03 06:25:56;;;;;;;64.05;21.63;;;;;;;0.57;100.00;96318.44;5047461;28;20056;-78
2022/12/03 06:28:22;;;;;;;68.18;21.92;;;;;;;0.53;100.00;96323.50;5041363;28;20088;-79
2022/12/03 06:30:49;;;;;;;60.13;20.48;;;;;;;0.49;100.00;96319.72;5036993;28;20396;-78
2022/12/03 06:33:16;;;;;;;51.28;18.42;;;;;;;0.52;100.00;96327.22;5046732;28;20225;-78
2022/12/03 06:35:42;;;;;;;61.22;19.20;;;;;;;0.50;100.00;96324.81;5052665;28;20051;-78
2022/12/03 06:38:14;;;;;;;56.50;18.52;;;;;;;0.51;100.00;96323.75;5049900;28;20047;-79
2022/12/03 06:40:42;;;;;;;55.17;17.65;;;;;;;0.42;100.00;96324.50;5043997;28;20049;-78
2022/12/03 06:43:09;;;;;;;52.85;17.80;;;;;;;0.45;100.00;96326.66;5041733;28;20045;-79
2022/12/03 06:45:36;;;;;;;58.30;18.63;;;;;;;0.51;100.00;96320.25;5048087;28;20098;-79
2022/12/03 06:48:04;;;;;;;52.33;17.80;;;;;;;0.56;100.00;96324.88;5042152;28;20045;-78
2022/12/03 06:50:31;;;;;;;51.45;17.95;;;;;;;0.61;100.00;96330.25;5042847;28;20045;-79
2022/12/03 06:53:02;;;;;;;54.25;18.90;;;;;;;0.59;100.00;96321.69;5035254;28;20566;-78
2022/12/03 06:55:31;;;;;;;55.55;19.83;;;;;;;0.55;100.00;96336.66;5042647;28;20090;-78
2022/12/03 06:57:59;;;;;;;50.40;16.70;;;;;;;0.50;99.85;96332.03;5044903;28;20103;-77
2022/12/03 07:00:27;;;;;;;54.17;17.35;;;;;;;0.51;100.00;96331.78;5055247;28;20045;-78
2022/12/03 07:02:54;;;;;;;52.08;17.10;;;;;;;0.56;100.00;96340.94;5034333;28;20095;-78
2022/12/03 07:05:21;;;;;;;49.53;16.88;;;;;;;0.54;100.00;96330.47;5047101;28;20106;-78
2022/12/03 07:07:50;;;;;;;53.53;17.77;;;;;;;0.55;99.81;96332.09;5045267;28;21204;-77
2022/12/03 07:10:18;;;;;;;52.67;18.02;;;;;;;0.55;99.72;96326.72;5045411;28;20041;-79
2022/12/03 07:12:48;;;;;;;59.60;18.80;;;;;;;0.59;99.71;96321.69;5041663;28;20432;-79
2022/12/03 07:15:16;;;;;;;60.58;18.48;;;;;;;0.55;99.67;96321.38;5045857;28;20040;-78
2022/12/03 07:17:42;;;;;;;62.25;18.60;;;;;;;0.58;99.53;96320.88;5042990;28;20140;-78
2022/12/03 07:20:10;;;;;;;57.03;18.77;;;;;;;0.60;99.69;96321.41;5041417;28;20386;-79
2022/12/03 07:22:37;;;;;;;48.63;17.98;;;;;;;0.54;99.72;96321.63;5050027;28;20051;-78
2022/12/03 07:25:04;;;;;;;51.60;17.63;;;;;;;0.59;99.46;96321.69;5038746;28;20657;-78
2022/12/03 07:27:30;;;;;;;58.67;18.70;;;;;;;0.57;99.23;96324.59;5046087;28;20084;-78
2022/12/03 07:29:58;;;;;;;47.83;16.40;;;;;;;0.55;99.36;96326.72;5045822;28;20071;-79
2022/12/03 07:32:25;;;;;;;53.10;18.10;;;;;;;0.53;99.83;96318.16;5044985;28;20040;-78
2022/12/03 07:34:52;;;;;;;53.75;17.88;;;;;;;0.59;99.75;96317.13;5041865;28;20053;-79
2022/12/03 07:37:18;;;;;;;57.13;18.30;;;;;;;0.61;99.73;96317.66;5041790;28;20077;-78
2022/12/03 07:39:45;;;;;;;56.85;17.55;;;;;;;0.57;99.67;96311.19;5047984;28;20049;-80
2022/12/03 07:42:13;;;;;;;50.20;16.80;;;;;;;0.57;99.63;96308.53;5038655;28;20140;-79
2022/12/03 07:44:40;;;;;;;46.25;15.88;;;;;;;0.59;99.61;96301.06;5035007;28;20042;-79
2022/12/03 07:47:08;;;;;;;48.28;16.75;;;;;;;0.54;99.50;96303.69;5039937;28;20144;-78
2022/12/03 07:49:34;;;;;;;58.20;18.15;;;;;;;0.49;98.91;96301.78;5044362;28;20037;-78
2022/12/03 07:52:01;;;;;;;46.10;15.27;;;;;;;0.56;97.98;96298.88;5053194;28;20047;-79
2022/12/03 07:54:32;;;;;;;51.17;15.77;;;;;;;0.57;97.20;96311.19;5036747;28;20095;-80
2022/12/03 07:57:00;;;;;;;48.15;16.00;;;;;;;0.57;97.42;96313.06;5045373;28;20048;-79
2022/12/03 07:59:31;;;;;;;50.67;16.55;;;;;;;0.51;97.89;96310.34;5060637;28;20056;-80
2022/12/03 08:01:58;;;;;;;53.05;17.05;;;;;;;0.49;98.08;96323.22;5051996;28;20037;-79
2022/12/03 08:04:41;;;;;;;51.60;16.42;;;;;;;0.48;98.92;96326.94;5034593;28;20041;-81
2022/12/03 08:07:08;;;;;;;49.75;16.30;;;;;;;0.50;98.65;96318.66;5034856;28;20068;-80
2022/12/03 08:09:36;;;;;;;57.28;17.75;;;;;;;0.50;98.54;96324.00;5052032;28;20061;-80
2022/12/03 08:12:15;;;;;;;55.63;17.15;;;;;;;0.52;98.67;96324.56;5043939;28;20051;-80
2022/12/03 08:14:41;;;;;;;50.00;16.23;;;;;;;0.52;97.72;96327.22;5056534;28;20132;-81
2022/12/03 08:17:11;;;;;;;53.97;16.83;;;;;;;0.46;97.73;96330.94;5054076;28;20578;-80
2022/12/03 08:19:41;;;;;;;43.22;15.48;;;;;;;0.42;98.04;96321.81;5042911;28;20049;-80
2022/12/03 08:22:11;;;;;;;49.13;16.05;;;;;;;0.41;97.63;96307.59;5042484;28;20407;-79
2022/12/03 08:24:38;;;;;;;68.00;18.70;;;;;;;0.44;97.89;96308.97;5048851;28;20163;-81
2022/12/03 08:27:14;;;;;;;51.13;16.00;;;;;;;0.46;98.19;96312.97;5045203;28;20110;-77
2022/12/03 08:29:41;;;;;;;54.97;17.63;;;;;;;0.50;98.23;96318.66;5034552;28;20128;-79
2022/12/03 08:32:10;;;;;;;53.67;16.92;;;;;;;0.54;98.50;96314.41;5055906;28;20053;-78
2022/12/03 08:34:40;;;;;;;57.70;18.00;;;;;;;0.55;97.89;96321.38;5039584;28;20480;-78
2022/12/03 08:37:14;;;;;;;53.63;18.50;;;;;;;0.57;98.11;96316.56;5043849;28;20051;-78
2022/12/03 08:39:45;;;;;;;62.10;18.67;;;;;;;0.51;97.90;96312.22;5046697;28;20056;-79
2022/12/03 08:45:38;;;;;;;49.03;17.55;;;;;;;0.61;97.94;96306.94;5041093;28;20048;-80
2022/12/03 08:48:17;;;;;;;49.67;17.90;;;;;;;0.64;97.93;96305.66;5053325;28;20068;-80
2022/12/03 08:50:46;;;;;;;55.15;18.52;;;;;;;0.65;98.24;96305.38;5052286;28;20052;-80
2022/12/03 08:53:25;;;;;;;47.90;17.30;;;;;;;0.71;98.30;96308.91;5054055;28;20053;-80
2022/12/03 08:55:53;;;;;;;52.08;17.40;;;;;;;0.74;98.32;96309.22;5037861;28;20072;-78
2022/12/03 08:58:22;;;;;;;46.40;17.05;;;;;;;0.77;98.01;96319.41;5041860;28;20045;-78
2022/12/03 09:00:58;;;;;;;55.95;18.55;;;;;;;0.78;97.82;96320.22;5037759;28;20037;-80
2022/12/03 09:03:24;;;;;;;45.85;16.15;;;;;;;0.80;96.78;96319.97;5034649;28;20056;-80
2022/12/03 09:05:52;;;;;;;50.90;16.20;;;;;;;0.75;97.26;96326.91;5035058;28;20045;-78
2022/12/03 09:08:19;;;;;;;51.58;16.83;;;;;;;0.62;97.10;96327.31;5045624;28;20041;-77
2022/12/03 09:10:45;;;;;;;59.75;18.70;;;;;;;0.67;97.05;96324.69;5051621;28;20186;-80
2022/12/03 09:13:12;;;;;;;46.10;15.65;;;;;;;0.69;97.11;96325.25;5043748;28;20052;-76
2022/12/03 09:15:38;;;;;;;58.42;19.15;;;;;;;0.70;97.21;96326.88;5040301;28;20057;-77
2022/12/03 09:18:05;;;;;;;50.63;17.85;;;;;;;0.80;97.29;96322.66;5042032;28;20041;-77
2022/12/03 09:20:32;;;;;;;53.55;19.10;;;;;;;0.69;97.71;96317.22;5050198;28;20501;-77
2022/12/03 09:23:00;;;;;;;49.85;18.42;;;;;;;0.76;97.57;96317.00;5040913;28;20041;-81
2022/12/03 09:25:26;;;;;;;43.88;16.38;;;;;;;0.77;97.20;96318.59;5065901;28;20045;-80
2022/12/03 09:27:53;;;;;;;46.67;17.17;;;;;;;0.80;96.65;96309.25;5053587;28;20049;-80
2022/12/03 09:30:20;;;;;;;54.95;17.88;;;;;;;0.78;96.47;96304.97;5050631;28;20054;-80
2022/12/03 09:32:47;;;;;;;57.00;18.42;;;;;;;0.84;96.83;96302.31;5041163;28;20062;-78
2022/12/03 09:35:14;;;;;;;48.65;17.17;;;;;;;0.87;97.08;96301.78;5043050;28;20041;-78
2022/12/03 09:37:40;;;;;;;47.30;17.48;;;;;;;0.92;97.25;96304.50;5048103;28;20076;-77
2022/12/03 09:40:09;;;;;;;51.38;17.75;;;;;;;0.93;96.67;96298.06;5045562;28;20412;-78
2022/12/03 09:42:37;;;;;;;58.10;19.20;;;;;;;0.93;96.84;96303.44;5051731;28;20049;-78
2022/12/03 09:45:09;;;;;;;48.55;17.15;;;;;;;0.96;96.53;96305.63;5053088;28;20107;-77
2022/12/03 09:47:36;;;;;;;49.50;16.70;;;;;;;0.91;96.35;96292.97;5033840;28;20046;-77
2022/12/03 09:50:04;;;;;;;62.03;21.35;;;;;;;0.93;96.52;96293.50;5047221;28;20311;-77
2022/12/03 09:52:33;;;;;;;52.35;22.63;;;;;;;0.95;96.92;96294.09;5053122;28;20037;-77
2022/12/03 09:55:02;;;;;;;47.30;19.27;;;;;;;1.00;96.63;96286.06;5043491;28;20487;-75
2022/12/03 09:57:31;;;;;;;36.50;16.80;;;;;;;1.01;96.47;96293.03;5040898;28;20046;-77
2022/12/03 10:00:00;;;;;;;32.95;16.00;;;;;;;1.01;96.44;96286.88;5039637;28;20056;-77
2022/12/03 10:02:29;;;;;;;39.92;15.45;;;;;;;1.04;95.84;96280.97;5038946;28;20049;-77
2022/12/03 10:04:56;;;;;;;33.33;15.10;;;;;;;1.08;95.35;96287.44;5042539;28;20044;-78
2022/12/03 10:07:25;;;;;;;42.58;17.05;;;;;;;1.06;94.70;96281.53;5042731;28;20045;-76
2022/12/03 10:09:51;;;;;;;41.90;17.73;;;;;;;1.01;94.53;96286.88;5038977;28;20049;-77
2022/12/03 10:12:23;;;;;;;31.60;15.75;;;;;;;1.08;94.65;96287.44;5032603;28;20049;-79
2022/12/03 10:14:52;;;;;;;46.22;17.73;;;;;;;1.11;94.52;96286.94;5045075;28;20051;-77
2022/12/03 10:17:19;;;;;;;48.17;17.55;;;;;;;1.11;94.79;96286.13;5052014;28;20295;-78
2022/12/03 10:19:46;;;;;;;53.28;18.38;;;;;;;1.08;95.23;96275.91;5045509;28;20059;-77
2022/12/03 10:22:13;;;;;;;41.53;16.35;;;;;;;1.09;94.59;96272.97;5039526;28;20049;-76
2022/12/03 10:24:40;;;;;;;45.70;18.33;;;;;;;1.06;95.37;96262.78;5036268;28;20056;-77
2022/12/03 10:27:21;;;;;;;38.45;17.75;;;;;;;1.17;95.61;96266.31;5042695;28;20049;-78
2022/12/03 10:29:56;;;;;;;33.05;14.95;;;;;;;1.16;95.28;96262.84;5049853;28;20053;-78
2022/12/03 10:32:26;;;;;;;35.95;16.85;;;;;;;1.23;95.50;96260.72;5036293;28;20041;-77
2022/12/03 10:35:07;;;;;;;49.88;18.55;;;;;;;1.26;95.30;96260.22;5034840;28;20056;-77
2022/12/03 10:37:34;;;;;;;45.45;17.42;;;;;;;1.28;95.48;96260.75;5042901;28;20099;-77
2022/12/03 10:40:04;;;;;;;48.75;17.15;;;;;;;1.28;95.48;96258.06;5040322;28;20041;-77
2022/12/03 10:42:33;;;;;;;38.67;15.65;;;;;;;1.28;94.88;96254.56;5040556;28;20712;-76
2022/12/03 10:45:17;;;;;;;49.00;17.95;;;;;;;1.35;95.07;96259.69;5046400;28;20055;-77
2022/12/03 10:48:03;;;;;;;45.10;17.33;;;;;;;1.20;95.04;96253.22;5042455;28;20060;-77
2022/12/03 10:50:29;;;;;;;47.28;17.50;;;;;;;1.19;94.66;96246.19;5048226;28;20056;-78
2022/12/03 10:52:56;;;;;;;52.25;18.25;;;;;;;1.23;95.03;96246.50;5040608;28;20053;-78
2022/12/03 10:55:23;;;;;;;51.83;18.70;;;;;;;1.30;94.72;96247.88;5038864;28;20044;-78
2022/12/03 10:57:50;;;;;;;62.97;20.33;;;;;;;1.24;94.23;96238.19;5045452;28;20136;-78
2022/12/03 11:00:22;;;;;;;55.10;18.05;;;;;;;1.30;93.79;96226.44;5045390;28;20051;-77
2022/12/03 11:02:49;;;;;;;43.15;17.45;;;;;;;1.33;93.67;96232.31;5035901;28;20056;-78
2022/12/03 11:05:20;;;;;;;43.88;17.67;;;;;;;1.27;93.68;96231.50;5047772;28;20045;-78
2022/12/03 11:07:46;;;;;;;50.58;17.38;;;;;;;1.26;94.04;96222.66;5048775;28;20040;-78
2022/12/03 11:10:15;;;;;;;38.83;17.50;;;;;;;1.37;94.15;96217.34;5039125;28;20049;-77
2022/12/03 11:12:42;;;;;;;37.95;16.85;;;;;;;1.37;94.09;96222.69;5038894;28;20140;-77
2022/12/03 11:15:15;;;;;;;42.08;18.63;;;;;;;1.28;94.02;96217.81;5039663;28;20056;-77
2022/12/03 11:17:47;;;;;;;48.33;19.88;;;;;;;1.26;93.92;96213.81;5040701;28;20053;-78
2022/12/03 11:20:48;;;;;;;44.83;19.13;;;;;;;1.34;93.89;96220.53;5045155;28;20063;-79
2022/12/03 11:23:15;;;;;;;51.28;20.77;;;;;;;1.39;94.05;96220.53;5037175;28;20044;-77
2022/12/03 11:25:50;;;;;;;44.83;18.67;;;;;;;1.43;93.44;96218.94;5032823;28;20049;-77
2022/12/03 11:28:38;;;;;;;46.65;19.25;;;;;;;1.33;93.18;96208.19;5042332;28;20049;-77
2022/12/03 11:31:11;;;;;;;47.25;18.38;;;;;;;1.26;93.58;96203.06;5033571;28;20419;-78
2022/12/03 11:33:40;;;;;;;36.75;18.13;;;;;;;1.29;93.95;96214.06;5039113;28;20075;-77
2022/12/03 11:36:18;;;;;;;41.60;18.88;;;;;;;1.31;93.96;96216.50;5034742;28;20053;-79
2022/12/03 11:38:51;;;;;;;52.85;19.75;;;;;;;1.27;94.35;96213.53;5043856;28;20087;-77
2022/12/03 11:41:18;;;;;;;;;;;;;;;1.35;94.41;96214.09;5042508;28;20049;-78
2022/12/03 11:44:27;;;;;;;45.63;18.60;;;;;;;1.28;94.68;96220.50;5034131;28;20351;-77
2022/12/03 11:46:57;;;;;;;47.78;19.30;;;;;;;1.29;94.75;96221.31;5039312;28;20049;-77
2022/12/03 11:49:29;;;;;;;46.03;20.17;;;;;;;1.30;94.90;96213.00;5038339;28;20067;-77
2022/12/03 11:51:56;;;;;;;42.72;18.70;;;;;;;1.37;95.18;96217.34;5042361;28;20049;-77